createdAt,value
2023-10-26T00:02:08.235Z,99044.91
2023-10-26T00:04:34.790Z,98974.44
2023-10-26T00:07:01.925Z,99009.50
2023-10-26T00:09:28.440Z,98992.00
2023-10-26T00:11:54.987Z,99033.44
2023-10-26T00:14:21.548Z,98963.09
2023-10-26T00:16:47.970Z,98998.72
2023-10-26T00:19:14.446Z,99026.72
2023-10-26T00:21:41.843Z,99037.78
2023-10-26T00:24:09.053Z,98973.97
2023-10-26T00:26:35.497Z,99041.50
2023-10-26T00:29:01.891Z,99036.84
2023-10-26T00:31:28.272Z,99045.94
2023-10-26T00:33:55.012Z,98975.47
2023-10-26T00:36:21.465Z,99043.28
2023-10-26T00:38:47.942Z,99036.28
2023-10-26T00:41:14.314Z,99031.53
2023-10-26T00:43:40.698Z,98975.84
2023-10-26T00:46:11.677Z,99024.00
2023-10-26T00:48:38.970Z,99030.16
2023-10-26T00:51:06.742Z,99042.00
2023-10-26T00:53:34.596Z,98974.59
2023-10-26T00:56:01.250Z,99015.72
2023-10-26T00:58:30.193Z,98917.34
2023-10-26T01:00:56.893Z,98964.50
2023-10-26T01:03:25.260Z,99014.66
2023-10-26T01:05:51.734Z,99007.38
2023-10-26T01:08:19.478Z,98955.78
2023-10-26T01:10:47.438Z,99009.31
2023-10-26T01:13:14.295Z,99013.88
2023-10-26T01:15:40.819Z,99031.06
2023-10-26T01:18:07.386Z,99025.13
2023-10-26T01:20:33.983Z,99035.19
2023-10-26T01:23:00.471Z,99042.72
2023-10-26T01:25:26.910Z,99034.84
2023-10-26T01:27:53.325Z,99031.47
2023-10-26T01:30:19.887Z,99009.28
2023-10-26T01:32:46.446Z,99013.56
2023-10-26T01:35:12.962Z,99027.56
2023-10-26T01:37:40.316Z,99025.16
2023-10-26T01:40:08.974Z,99030.28
2023-10-26T01:42:36.762Z,98984.00
2023-10-26T01:45:03.625Z,99032.00
2023-10-26T01:47:30.130Z,99029.69
2023-10-26T01:49:56.592Z,99022.59
2023-10-26T01:52:23.100Z,98966.81
2023-10-26T01:54:50.659Z,98964.25
2023-10-26T01:57:18.250Z,99002.66
2023-10-26T01:59:44.720Z,99015.00
2023-10-26T02:02:11.135Z,99012.50
2023-10-26T02:04:37.844Z,99018.00
2023-10-26T02:07:05.086Z,99005.25
2023-10-26T02:09:31.564Z,99012.38
2023-10-26T02:11:58.321Z,99006.16
2023-10-26T02:14:24.728Z,98998.88
2023-10-26T02:16:51.200Z,98962.00
2023-10-26T02:19:19.075Z,99010.50
2023-10-26T02:21:46.071Z,98999.22
2023-10-26T02:24:12.603Z,98903.50
2023-10-26T02:26:39.006Z,98906.06
2023-10-26T02:29:05.550Z,98958.28
2023-10-26T02:31:32.002Z,99011.00
2023-10-26T02:33:58.479Z,99005.78
2023-10-26T02:36:24.999Z,98966.75
2023-10-26T02:38:51.462Z,99013.88
2023-10-26T02:41:18.031Z,98963.28
2023-10-26T02:43:45.754Z,98971.00
2023-10-26T02:46:12.267Z,99019.22
2023-10-26T02:48:38.914Z,99022.59
2023-10-26T02:51:06.473Z,99013.31
2023-10-26T02:53:33.374Z,98965.03
2023-10-26T02:55:59.782Z,99016.94
2023-10-26T02:58:26.195Z,99026.34
2023-10-26T03:00:56.202Z,99001.94
2023-10-26T03:03:23.562Z,99025.56
2023-10-26T03:05:51.802Z,99021.91
2023-10-26T03:08:18.262Z,98927.19
2023-10-26T03:10:45.027Z,99015.28
2023-10-26T03:13:12.716Z,99018.91
2023-10-26T03:15:39.117Z,99019.59
2023-10-26T03:18:05.668Z,98971.91
2023-10-26T03:20:32.852Z,98977.91
2023-10-26T03:22:59.611Z,99021.28
2023-10-26T03:25:26.208Z,99014.44
2023-10-26T03:27:52.647Z,98960.91
2023-10-26T03:30:19.358Z,99023.16
2023-10-26T03:32:47.120Z,98977.75
2023-10-26T03:35:13.561Z,99015.53
2023-10-26T03:37:41.049Z,99028.84
2023-10-26T03:40:07.962Z,98982.34
2023-10-26T03:42:34.797Z,99039.47
2023-10-26T03:45:02.406Z,98977.31
2023-10-26T03:47:28.886Z,99021.38
2023-10-26T03:49:55.342Z,99032.63
2023-10-26T03:52:23.068Z,99026.50
2023-10-26T03:54:50.786Z,99014.88
2023-10-26T03:57:17.397Z,98967.09
2023-10-26T03:59:44.167Z,99030.06
2023-10-26T04:02:12.137Z,98984.81
2023-10-26T04:04:39.419Z,99025.16
2023-10-26T04:07:06.175Z,99034.84
2023-10-26T04:09:32.704Z,99040.34
2023-10-26T04:11:59.251Z,99045.47
2023-10-26T04:14:26.902Z,99041.06
2023-10-26T04:16:53.600Z,99039.19
2023-10-26T04:19:20.013Z,99018.00
2023-10-26T04:21:46.444Z,99033.25
2023-10-26T04:24:12.914Z,99037.56
2023-10-26T04:26:39.352Z,98990.31
2023-10-26T04:29:07.604Z,99033.69
2023-10-26T04:31:35.158Z,99018.69
2023-10-26T04:34:01.608Z,98986.56
2023-10-26T04:36:28.114Z,99011.00
2023-10-26T04:38:54.679Z,98977.50
2023-10-26T04:41:21.148Z,99026.81
2023-10-26T04:43:47.852Z,99022.63
2023-10-26T04:46:14.313Z,99021.06
2023-10-26T04:48:41.229Z,99030.34
2023-10-26T04:51:09.598Z,99035.47
2023-10-26T04:53:36.050Z,99031.97
2023-10-26T04:56:03.183Z,99026.63
2023-10-26T04:58:29.642Z,99019.13
2023-10-26T05:00:56.089Z,98998.06
2023-10-26T05:03:22.509Z,99031.38
2023-10-26T05:05:48.928Z,99026.97
2023-10-26T05:08:15.331Z,99004.28
2023-10-26T05:10:42.518Z,99024.81
2023-10-26T05:13:11.429Z,98988.78
2023-10-26T05:15:37.935Z,99025.97
2023-10-26T05:18:05.010Z,99038.31
2023-10-26T05:20:33.936Z,98986.06
2023-10-26T05:23:01.300Z,99010.06
2023-10-26T05:25:27.989Z,98991.28
2023-10-26T05:27:54.503Z,99028.44
2023-10-26T05:30:21.129Z,99038.31
2023-10-26T05:32:47.592Z,99041.66
2023-10-26T05:35:15.169Z,98981.34
2023-10-26T05:37:41.606Z,99027.66
2023-10-26T05:40:09.594Z,99037.09
2023-10-26T05:42:36.382Z,98968.09
2023-10-26T05:45:03.006Z,99038.31
2023-10-26T05:47:29.449Z,99029.41
2023-10-26T05:49:56.098Z,99030.31
2023-10-26T05:52:22.512Z,99029.59
2023-10-26T05:54:49.147Z,99042.41
2023-10-26T05:57:15.598Z,99034.53
2023-10-26T05:59:42.117Z,99031.13
2023-10-26T06:02:08.481Z,98979.00
2023-10-26T06:04:34.938Z,99013.56
2023-10-26T06:07:02.442Z,99027.78
2023-10-26T06:09:28.915Z,99029.47
2023-10-26T06:11:55.323Z,99038.16
2023-10-26T06:14:21.783Z,98971.59
2023-10-26T06:16:48.368Z,98984.81
2023-10-26T06:19:14.755Z,98993.88
2023-10-26T06:21:41.175Z,99043.19
2023-10-26T06:24:08.131Z,99044.19
2023-10-26T06:26:34.709Z,99012.78
2023-10-26T06:29:01.101Z,99041.00
2023-10-26T06:31:27.664Z,99055.91
2023-10-26T06:33:54.115Z,99047.19
2023-10-26T06:36:20.542Z,99062.13
2023-10-26T06:38:47.046Z,99052.53
2023-10-26T06:41:13.450Z,99057.16
2023-10-26T06:43:40.096Z,99063.47
2023-10-26T06:46:06.639Z,99006.44
2023-10-26T06:48:33.280Z,99050.13
2023-10-26T06:51:04.164Z,99062.41
2023-10-26T06:53:30.848Z,99049.22
2023-10-26T06:55:58.578Z,99059.84
2023-10-26T06:58:25.100Z,99021.63
2023-10-26T07:00:53.236Z,99058.78
2023-10-26T07:03:20.894Z,99067.75
2023-10-26T07:05:49.100Z,99058.47
2023-10-26T07:08:15.860Z,99055.69
2023-10-26T07:10:42.509Z,98995.31
2023-10-26T07:13:09.469Z,99060.13
2023-10-26T07:15:37.352Z,99050.13
2023-10-26T07:18:05.222Z,99073.06
2023-10-26T07:20:31.920Z,99059.41
2023-10-26T07:22:58.323Z,99061.38
2023-10-26T07:25:24.749Z,99024.50
2023-10-26T07:27:51.265Z,99061.00
2023-10-26T07:30:17.883Z,99080.72
2023-10-26T07:32:44.420Z,99070.78
2023-10-26T07:35:10.963Z,99077.06
2023-10-26T07:37:38.559Z,99079.84
2023-10-26T07:40:25.569Z,99071.13
2023-10-26T07:42:53.096Z,99063.63
2023-10-26T07:45:19.828Z,99070.44
2023-10-26T07:47:46.357Z,99054.47
2023-10-26T07:50:12.944Z,99084.66
2023-10-26T07:52:39.443Z,99059.16
2023-10-26T07:55:06.393Z,99042.59
2023-10-26T07:57:33.044Z,99031.41
2023-10-26T07:59:59.508Z,99094.06
2023-10-26T08:02:26.024Z,99093.53
2023-10-26T08:04:52.588Z,99089.44
2023-10-26T08:07:21.925Z,99086.88
2023-10-26T08:09:49.380Z,99048.19
2023-10-26T08:12:15.838Z,99092.78
2023-10-26T08:16:09.477Z,99085.97
2023-10-26T08:17:30.033Z,98987.94
2023-10-26T08:19:58.409Z,99096.69
2023-10-26T08:22:25.014Z,99055.53
2023-10-26T08:24:51.440Z,99101.44
2023-10-26T08:27:17.890Z,99055.69
2023-10-26T08:29:44.451Z,99105.34
2023-10-26T08:32:11.142Z,99081.31
2023-10-26T08:34:38.292Z,99052.13
2023-10-26T08:39:34.068Z,99093.59
2023-10-26T08:42:02.726Z,99096.38
2023-10-26T08:44:29.757Z,99097.50
2023-10-26T08:47:18.640Z,99111.69
2023-10-26T08:49:55.908Z,99103.00
2023-10-26T08:52:26.190Z,99103.00
2023-10-26T08:54:52.608Z,99062.22
2023-10-26T08:57:19.019Z,99081.88
2023-10-26T08:59:45.415Z,99055.53
2023-10-26T09:02:11.930Z,99117.66
2023-10-26T09:04:38.562Z,99082.41
2023-10-26T09:07:05.064Z,99061.91
2023-10-26T09:09:44.390Z,99105.81
2023-10-26T09:12:11.804Z,99113.09
2023-10-26T09:14:39.102Z,99107.94
2023-10-26T09:17:05.650Z,99058.19
2023-10-26T09:19:39.080Z,99114.06
2023-10-26T09:22:08.552Z,99103.94
2023-10-26T09:24:34.918Z,99055.81
2023-10-26T09:27:01.722Z,99086.84
2023-10-26T09:29:41.731Z,99065.38
2023-10-26T09:32:09.907Z,99110.19
2023-10-26T09:34:44.356Z,99107.38
2023-10-26T09:37:13.678Z,99111.50
2023-10-26T09:39:43.885Z,99101.78
2023-10-26T09:42:12.353Z,99116.06
2023-10-26T09:44:39.584Z,99054.84
2023-10-26T09:47:07.598Z,99075.13
2023-10-26T09:49:34.368Z,99095.72
2023-10-26T09:52:00.808Z,99096.78
2023-10-26T09:54:38.940Z,99101.44
2023-10-26T09:57:14.594Z,99100.53
2023-10-26T09:59:41.133Z,99104.81
2023-10-26T10:02:17.118Z,99104.41
2023-10-26T10:04:45.312Z,99091.19
2023-10-26T10:07:50.111Z,99098.94
2023-10-26T10:10:16.669Z,99111.09
2023-10-26T10:12:52.539Z,99052.94
2023-10-26T10:15:41.922Z,99106.31
2023-10-26T10:18:10.071Z,99101.50
2023-10-26T10:20:38.415Z,99110.69
2023-10-26T10:23:05.481Z,99026.00
2023-10-26T10:25:50.259Z,99057.53
2023-10-26T10:28:17.867Z,99096.72
2023-10-26T10:30:57.304Z,99099.06
2023-10-26T10:33:26.157Z,99119.69
2023-10-26T10:36:01.731Z,99064.34
2023-10-26T10:38:29.640Z,99050.91
2023-10-26T10:40:56.080Z,99090.94
2023-10-26T10:43:44.821Z,99078.28
2023-10-26T10:46:21.494Z,99094.72
2023-10-26T10:49:08.194Z,99102.38
2023-10-26T10:51:42.375Z,99055.41
2023-10-26T10:54:22.362Z,99109.56
2023-10-26T10:56:57.003Z,99090.88
2023-10-26T10:59:26.957Z,99098.13
2023-10-26T11:02:09.645Z,99108.75
2023-10-26T11:04:48.045Z,99048.56
2023-10-26T11:07:18.004Z,99104.88
2023-10-26T11:09:46.685Z,99097.63
2023-10-26T11:12:13.526Z,99107.16
2023-10-26T11:14:53.929Z,99103.63
2023-10-26T11:17:22.026Z,99095.88
2023-10-26T11:19:49.666Z,99101.91
2023-10-26T11:22:17.055Z,99107.81
2023-10-26T11:24:44.535Z,99095.78
2023-10-26T11:27:12.134Z,99103.94
2023-10-26T11:29:38.788Z,99113.44
2023-10-26T11:32:18.440Z,99111.59
2023-10-26T11:35:04.493Z,99113.50
2023-10-26T11:37:31.161Z,99098.78
2023-10-26T11:39:57.585Z,99013.66
2023-10-26T11:43:02.168Z,99104.75
2023-10-26T11:45:29.323Z,99064.50
2023-10-26T11:48:03.054Z,99100.69
2023-10-26T11:50:31.667Z,99107.56
2023-10-26T11:53:01.195Z,99105.22
2023-10-26T11:55:31.006Z,99010.28
2023-10-26T11:57:59.604Z,99104.31
2023-10-26T12:00:27.977Z,99109.91
2023-10-26T12:02:58.926Z,99045.13
2023-10-26T12:05:27.211Z,99084.56
2023-10-26T12:07:54.400Z,99067.16
2023-10-26T12:10:22.421Z,99026.97
2023-10-26T12:12:52.233Z,99055.28
2023-10-26T12:15:20.246Z,99073.50
2023-10-26T12:17:47.201Z,99046.84
2023-10-26T12:20:14.912Z,98988.72
2023-10-26T12:22:41.932Z,99070.50
2023-10-26T12:25:09.350Z,99081.38
2023-10-26T12:28:21.889Z,99084.38
2023-10-26T12:30:22.534Z,99034.63
2023-10-26T12:32:48.976Z,99089.91
2023-10-26T12:35:15.434Z,99089.50
2023-10-26T12:37:41.826Z,99041.63
2023-10-26T12:40:09.292Z,99097.00
2023-10-26T12:42:37.112Z,99051.06
2023-10-26T12:45:04.118Z,99077.31
2023-10-26T12:47:30.562Z,99107.50
2023-10-26T12:49:56.979Z,99053.06
2023-10-26T12:52:23.391Z,99098.28
2023-10-26T12:54:49.864Z,99075.41
2023-10-26T12:57:16.258Z,99095.44
2023-10-26T12:59:42.641Z,99094.63
2023-10-26T13:02:09.052Z,99108.44
2023-10-26T13:04:35.511Z,99087.78
2023-10-26T13:07:01.980Z,99117.91
2023-10-26T13:09:29.501Z,99118.03
2023-10-26T13:11:56.017Z,99115.69
2023-10-26T13:14:22.480Z,99082.31
2023-10-26T13:16:50.330Z,99114.25
2023-10-26T13:19:24.458Z,99113.91
2023-10-26T13:21:50.879Z,99111.97
2023-10-26T13:24:17.506Z,99113.59
2023-10-26T13:26:43.905Z,99119.22
2023-10-26T13:29:10.311Z,99112.91
2023-10-26T13:31:36.766Z,99114.16
2023-10-26T13:34:03.523Z,99111.44
2023-10-26T13:36:29.993Z,99083.34
2023-10-26T13:38:57.491Z,99068.03
2023-10-26T13:41:24.673Z,99075.28
2023-10-26T13:43:52.031Z,99098.56
2023-10-26T13:46:18.506Z,99111.59
2023-10-26T13:48:44.960Z,99128.03
2023-10-26T13:51:17.523Z,99117.56
2023-10-26T13:53:43.989Z,99118.53
2023-10-26T13:56:10.576Z,99085.78
2023-10-26T13:58:36.989Z,99116.59
2023-10-26T14:01:10.633Z,99119.31
2023-10-26T14:03:37.084Z,99113.28
2023-10-26T14:06:03.740Z,99122.72
2023-10-26T14:08:31.275Z,99116.59
2023-10-26T14:10:59.547Z,99105.06
2023-10-26T14:13:26.064Z,99110.19
2023-10-26T14:15:52.477Z,99123.84
2023-10-26T14:18:18.873Z,99114.28
2023-10-26T14:20:45.269Z,99104.75
2023-10-26T14:23:11.635Z,99067.50
2023-10-26T14:25:38.009Z,99120.78
2023-10-26T14:28:04.641Z,99122.38
2023-10-26T14:30:32.259Z,99109.28
2023-10-26T14:32:58.804Z,99131.06
2023-10-26T14:35:25.220Z,99118.84
2023-10-26T14:37:51.708Z,99118.38
2023-10-26T14:40:19.166Z,99110.56
2023-10-26T14:42:46.358Z,99108.97
2023-10-26T14:45:12.846Z,99086.25
2023-10-26T14:47:39.332Z,99108.25
2023-10-26T14:50:06.067Z,99107.78
2023-10-26T14:52:32.470Z,99093.00
2023-10-26T14:54:59.123Z,99101.97
2023-10-26T14:57:25.498Z,99104.09
2023-10-26T14:59:51.872Z,99102.56
2023-10-26T15:02:18.264Z,99099.00
2023-10-26T15:04:45.097Z,99104.28
2023-10-26T15:07:11.768Z,99054.94
2023-10-26T15:10:20.241Z,99080.84
2023-10-26T15:12:25.773Z,99084.13
2023-10-26T15:14:52.654Z,99092.91
2023-10-26T15:17:25.713Z,99077.81
2023-10-26T15:19:52.258Z,99091.28
2023-10-26T15:22:18.657Z,99020.44
2023-10-26T15:24:45.255Z,99078.88
2023-10-26T15:27:12.397Z,99078.06
2023-10-26T15:29:41.646Z,99073.47
2023-10-26T15:32:08.041Z,99084.13
2023-10-26T15:34:34.547Z,99072.06
2023-10-26T15:37:01.050Z,99067.69
2023-10-26T15:39:28.500Z,99071.72
2023-10-26T15:41:55.483Z,99074.44
2023-10-26T15:44:24.639Z,99073.47
2023-10-26T15:46:51.048Z,99057.66
2023-10-26T15:49:33.306Z,99033.66
2023-10-26T15:52:02.327Z,99066.13
2023-10-26T15:54:29.059Z,99068.63
2023-10-26T15:56:55.474Z,99061.88
2023-10-26T15:59:24.599Z,99051.06
2023-10-26T16:01:51.130Z,99060.91
2023-10-26T16:04:17.625Z,99059.75
2023-10-26T16:06:46.573Z,99042.19
2023-10-26T16:09:14.063Z,98965.06
2023-10-26T16:11:40.558Z,99051.66
2023-10-26T16:14:07.043Z,99001.56
2023-10-26T16:16:33.690Z,99070.75
2023-10-26T16:19:00.231Z,99062.94
2023-10-26T16:21:26.647Z,99068.75
2023-10-26T16:23:53.133Z,99021.81
2023-10-26T16:26:19.552Z,99049.06
2023-10-26T16:28:48.289Z,99014.53
2023-10-26T16:31:16.360Z,99067.09
2023-10-26T16:33:42.785Z,99080.25
2023-10-26T16:36:09.202Z,98989.91
2023-10-26T16:38:35.615Z,99043.09
2023-10-26T16:41:01.988Z,99078.38
2023-10-26T16:43:28.442Z,99032.28
2023-10-26T16:45:56.998Z,99074.69
2023-10-26T16:48:24.310Z,99048.72
2023-10-26T16:50:51.171Z,99081.25
2023-10-26T16:53:30.660Z,99076.28
2023-10-26T16:56:03.888Z,99039.03
2023-10-26T16:58:32.841Z,99041.78
2023-10-26T17:00:59.931Z,99084.25
2023-10-26T17:03:27.713Z,99083.38
2023-10-26T17:05:54.130Z,99083.13
2023-10-26T17:08:20.939Z,99091.91
2023-10-26T17:10:49.530Z,99089.94
2023-10-26T17:13:19.369Z,99080.88
2023-10-26T17:15:46.127Z,99074.00
2023-10-26T17:18:12.730Z,99074.16
2023-10-26T17:20:39.418Z,99088.00
2023-10-26T17:23:05.829Z,99077.38
2023-10-26T17:25:36.164Z,99084.63
2023-10-26T17:28:02.828Z,99040.78
2023-10-26T17:30:29.951Z,99028.03
2023-10-26T17:32:56.402Z,99082.84
2023-10-26T17:35:22.853Z,99033.00
2023-10-26T17:37:49.265Z,99083.56
2023-10-26T17:40:15.717Z,99085.88
2023-10-26T17:42:42.290Z,99084.09
2023-10-26T17:45:09.248Z,99078.75
2023-10-26T17:47:35.715Z,99063.63
2023-10-26T17:50:02.150Z,99069.56
2023-10-26T17:52:28.526Z,99078.06
2023-10-26T17:54:55.132Z,99079.31
2023-10-26T17:57:22.378Z,99078.44
2023-10-26T17:59:48.811Z,99052.88
2023-10-26T18:02:15.358Z,99065.31
2023-10-26T18:04:41.935Z,99060.75
2023-10-26T18:07:09.055Z,99048.44
2023-10-26T18:09:37.623Z,99078.75
2023-10-26T18:12:04.495Z,99086.41
2023-10-26T18:14:30.873Z,99084.81
2023-10-26T18:16:58.424Z,99069.19
2023-10-26T18:19:24.963Z,99076.81
2023-10-26T18:21:51.793Z,99075.69
2023-10-26T18:24:18.256Z,99081.97
2023-10-26T18:26:44.897Z,99078.59
2023-10-26T18:29:11.272Z,99060.69
2023-10-26T18:31:37.744Z,99093.84
2023-10-26T18:34:04.546Z,99085.84
2023-10-26T18:36:32.942Z,99087.47
2023-10-26T18:38:59.839Z,99076.13
2023-10-26T18:41:26.872Z,99084.78
2023-10-26T18:43:54.377Z,99087.28
2023-10-26T18:46:21.244Z,99083.41
2023-10-26T18:48:47.838Z,99085.97
2023-10-26T18:51:14.412Z,99070.19
2023-10-26T18:53:41.966Z,99084.19
2023-10-26T18:56:16.168Z,99087.91
2023-10-26T18:58:43.272Z,99079.56
2023-10-26T19:01:09.827Z,99096.34
2023-10-26T19:03:43.120Z,99049.31
2023-10-26T19:06:20.060Z,99077.91
2023-10-26T19:08:46.532Z,99092.63
2023-10-26T19:11:13.385Z,99086.69
2023-10-26T19:13:40.393Z,99079.75
2023-10-26T19:16:07.226Z,99098.63
2023-10-26T19:18:34.635Z,99095.19
2023-10-26T19:21:01.376Z,99087.63
2023-10-26T19:23:27.881Z,99074.13
2023-10-26T19:25:54.713Z,99055.63
2023-10-26T19:28:22.462Z,99042.56
2023-10-26T19:30:50.650Z,99086.41
2023-10-26T19:33:17.316Z,99101.28
2023-10-26T19:35:43.700Z,99091.53
2023-10-26T19:38:10.143Z,99041.72
2023-10-26T19:40:36.552Z,99098.47
2023-10-26T19:43:02.976Z,99069.78
2023-10-26T19:45:29.715Z,99103.41
2023-10-26T19:47:56.348Z,99090.19
2023-10-26T19:50:23.015Z,99062.34
2023-10-26T19:52:49.420Z,99097.84
2023-10-26T19:55:16.183Z,99066.28
2023-10-26T19:57:42.657Z,99086.22
2023-10-26T20:00:14.002Z,99087.13
2023-10-26T20:02:40.470Z,99073.63
2023-10-26T20:05:07.196Z,99090.28
2023-10-26T20:07:33.624Z,99041.44
2023-10-26T20:10:00.040Z,99097.41
2023-10-26T20:12:26.601Z,99090.75
2023-10-26T20:14:53.000Z,99093.13
2023-10-26T20:17:19.371Z,99099.16
2023-10-26T20:19:46.179Z,99041.44
2023-10-26T20:22:12.919Z,99106.78
2023-10-26T20:24:39.312Z,99107.56
2023-10-26T20:27:05.804Z,99112.91
2023-10-26T20:29:32.702Z,99044.81
2023-10-26T20:31:59.159Z,99101.63
2023-10-26T20:34:25.905Z,99049.78
2023-10-26T20:36:52.567Z,99102.25
2023-10-26T20:39:19.074Z,99102.34
2023-10-26T20:41:45.558Z,99111.66
2023-10-26T20:44:13.987Z,99102.69
2023-10-26T20:46:40.407Z,99093.78
2023-10-26T20:49:07.023Z,99097.72
2023-10-26T20:51:34.914Z,99089.41
2023-10-26T20:54:02.354Z,99089.56
2023-10-26T20:56:28.841Z,99091.88
2023-10-26T20:58:55.242Z,99039.28
2023-10-26T21:01:21.877Z,99092.56
2023-10-26T21:03:49.061Z,99040.13
2023-10-26T21:06:16.546Z,99094.88
2023-10-26T21:08:45.457Z,99100.28
2023-10-26T21:11:16.638Z,99080.50
2023-10-26T21:13:43.369Z,99082.13
2023-10-26T21:16:09.951Z,99066.16
2023-10-26T21:18:36.451Z,99076.19
2023-10-26T21:21:07.813Z,99073.94
2023-10-26T21:23:34.947Z,99082.22
2023-10-26T21:26:09.330Z,99088.16
2023-10-26T21:28:38.528Z,99033.28
2023-10-26T21:31:05.306Z,99069.16
2023-10-26T21:33:32.484Z,99048.91
2023-10-26T21:35:58.964Z,99025.66
2023-10-26T21:38:25.363Z,99023.19
2023-10-26T21:40:51.858Z,99078.06
2023-10-26T21:43:18.690Z,99070.41
2023-10-26T21:45:45.269Z,99073.06
2023-10-26T21:48:13.690Z,99074.84
2023-10-26T21:50:40.257Z,99092.22
2023-10-26T21:53:06.848Z,99021.38
2023-10-26T21:55:35.494Z,99065.75
2023-10-26T21:58:02.135Z,99075.72
2023-10-26T22:00:29.338Z,99082.44
2023-10-26T22:02:56.679Z,99033.78
2023-10-26T22:05:23.574Z,99070.41
2023-10-26T22:07:51.216Z,99063.25
2023-10-26T22:10:18.676Z,99055.19
2023-10-26T22:12:45.342Z,99062.00
2023-10-26T22:15:13.710Z,99015.88
2023-10-26T22:17:43.743Z,99066.34
2023-10-26T22:20:10.943Z,99032.34
2023-10-26T22:22:38.156Z,98964.84
2023-10-26T22:25:05.167Z,99064.19
2023-10-26T22:27:32.216Z,99064.41
2023-10-26T22:29:59.112Z,99068.75
2023-10-26T22:32:25.684Z,99073.69
2023-10-26T22:34:52.454Z,99069.34
2023-10-26T22:37:19.902Z,99061.97
2023-10-26T22:39:46.877Z,99054.19
2023-10-26T22:42:13.743Z,99039.97
2023-10-26T22:44:40.138Z,99047.19
2023-10-26T22:47:08.202Z,99050.41
2023-10-26T22:49:35.016Z,98991.88
2023-10-26T22:52:01.717Z,99006.44
2023-10-26T22:54:28.419Z,99039.28
2023-10-26T22:56:54.816Z,99036.63
2023-10-26T22:59:21.732Z,98978.59
2023-10-26T23:01:48.696Z,99041.75
2023-10-26T23:04:15.679Z,99039.06
2023-10-26T23:06:42.314Z,99042.25
2023-10-26T23:09:10.076Z,99027.34
2023-10-26T23:11:36.578Z,99037.50
2023-10-26T23:14:03.091Z,98995.44
2023-10-26T23:16:29.589Z,99045.91
2023-10-26T23:18:56.889Z,99044.13
2023-10-26T23:21:23.527Z,98968.03
2023-10-26T23:23:49.921Z,99041.56
2023-10-26T23:26:16.391Z,99037.84
2023-10-26T23:28:42.797Z,98994.66
2023-10-26T23:31:12.534Z,99025.16
2023-10-26T23:33:39.418Z,99026.84
2023-10-26T23:36:10.352Z,99027.94
2023-10-26T23:38:36.976Z,99017.44
2023-10-26T23:41:03.609Z,99006.31
2023-10-26T23:43:30.043Z,99022.00
2023-10-26T23:45:58.759Z,98999.59
2023-10-26T23:48:25.666Z,98997.81
2023-10-26T23:50:52.111Z,98978.28
2023-10-26T23:53:19.347Z,98980.41
2023-10-26T23:55:46.212Z,98980.81
2023-10-26T23:58:12.945Z,98962.88
